sensor_id;sensor_type;location;lat;lon;timestamp;pressure;altitude;pressure_sealevel;temperature;humidity
70302;BME280;57706;56.326;43.882;2023-04-03T00:01:37;100815.41;;;2.32;86.29
70302;BME280;57706;56.326;43.882;2023-04-03T00:04:06;100805.84;;;2.33;86.84
70302;BME280;57706;56.326;43.882;2023-04-03T00:06:32;100809.59;;;2.29;87.11
70302;BME280;57706;56.326;43.882;2023-04-03T00:08:59;100811.25;;;2.30;87.27
70302;BME280;57706;56.326;43.882;2023-04-03T00:11:24;100810.69;;;2.25;87.09
70302;BME280;57706;56.326;43.882;2023-04-03T00:13:51;100811.38;;;2.14;87.50
70302;BME280;57706;56.326;43.882;2023-04-03T00:16:17;100810.16;;;2.19;87.48
70302;BME280;57706;56.326;43.882;2023-04-03T00:18:43;100807.56;;;2.19;87.52
70302;BME280;57706;56.326;43.882;2023-04-03T00:21:10;100822.22;;;2.20;87.12
70302;BME280;57706;56.326;43.882;2023-04-03T00:23:37;100816.09;;;2.22;87.19
70302;BME280;57706;56.326;43.882;2023-04-03T00:26:03;100816.81;;;2.24;86.95
70302;BME280;57706;56.326;43.882;2023-04-03T00:28:29;100813.09;;;2.28;87.37
70302;BME280;57706;56.326;43.882;2023-04-03T00:30:55;100817.56;;;2.26;87.67
70302;BME280;57706;56.326;43.882;2023-04-03T00:33:21;100811.44;;;2.27;87.53
70302;BME280;57706;56.326;43.882;2023-04-03T00:35:48;100815.50;;;2.31;87.49
70302;BME280;57706;56.326;43.882;2023-04-03T00:38:14;100815.22;;;2.36;87.23
70302;BME280;57706;56.326;43.882;2023-04-03T00:40:44;100811.03;;;2.33;87.22
70302;BME280;57706;56.326;43.882;2023-04-03T00:43:14;100812.72;;;2.34;87.06
70302;BME280;57706;56.326;43.882;2023-04-03T00:45:43;100813.72;;;2.31;87.21
70302;BME280;57706;56.326;43.882;2023-04-03T00:48:16;100812.72;;;2.34;87.19
70302;BME280;57706;56.326;43.882;2023-04-03T00:50:44;100810.84;;;2.36;86.95
70302;BME280;57706;56.326;43.882;2023-04-03T00:53:18;100806.28;;;2.40;86.91
70302;BME280;57706;56.326;43.882;2023-04-03T00:55:47;100810.16;;;2.47;86.71
70302;BME280;57706;56.326;43.882;2023-04-03T00:58:15;100811.72;;;2.50;86.47
70302;BME280;57706;56.326;43.882;2023-04-03T01:00:46;100806.75;;;2.46;86.59
70302;BME280;57706;56.326;43.882;2023-04-03T01:03:13;100812.97;;;2.44;86.54
70302;BME280;57706;56.326;43.882;2023-04-03T01:05:40;100809.44;;;2.45;86.71
70302;BME280;57706;56.326;43.882;2023-04-03T01:08:06;100812.88;;;2.45;86.85
70302;BME280;57706;56.326;43.882;2023-04-03T01:10:33;100813.38;;;2.51;86.83
70302;BME280;57706;56.326;43.882;2023-04-03T01:12:59;100809.84;;;2.52;86.71
70302;BME280;57706;56.326;43.882;2023-04-03T01:15:26;100798.03;;;2.47;86.77
70302;BME280;57706;56.326;43.882;2023-04-03T01:17:57;100806.75;;;2.46;86.83
70302;BME280;57706;56.326;43.882;2023-04-03T01:25:43;100812.53;;;2.37;87.22
70302;BME280;57706;56.326;43.882;2023-04-03T01:28:12;100811.59;;;2.38;87.54
70302;BME280;57706;56.326;43.882;2023-04-03T01:33:44;100803.31;;;2.46;87.14
70302;BME280;57706;56.326;43.882;2023-04-03T01:36:15;100806.91;;;2.43;87.62
70302;BME280;57706;56.326;43.882;2023-04-03T01:38:42;100810.06;;;2.48;87.46
70302;BME280;57706;56.326;43.882;2023-04-03T01:41:07;100814.84;;;2.55;87.35
70302;BME280;57706;56.326;43.882;2023-04-03T01:43:34;100808.00;;;2.54;87.61
70302;BME280;57706;56.326;43.882;2023-04-03T01:45:59;100813.91;;;2.56;87.80
70302;BME280;57706;56.326;43.882;2023-04-03T01:48:25;100811.34;;;2.56;87.45
70302;BME280;57706;56.326;43.882;2023-04-03T01:50:51;100809.25;;;2.61;87.38
70302;BME280;57706;56.326;43.882;2023-04-03T01:53:18;100802.94;;;2.65;87.18
70302;BME280;57706;56.326;43.882;2023-04-03T01:55:44;100808.66;;;2.70;87.19
70302;BME280;57706;56.326;43.882;2023-04-03T01:58:10;100806.88;;;2.71;87.06
70302;BME280;57706;56.326;43.882;2023-04-03T02:00:35;100811.59;;;2.79;86.99
70302;BME280;57706;56.326;43.882;2023-04-03T02:03:02;100809.31;;;2.87;86.75
70302;BME280;57706;56.326;43.882;2023-04-03T02:05:28;100810.22;;;2.86;86.70
70302;BME280;57706;56.326;43.882;2023-04-03T02:07:53;100807.44;;;2.89;86.89
70302;BME280;57706;56.326;43.882;2023-04-03T02:10:19;100796.84;;;2.92;86.70
70302;BME280;57706;56.326;43.882;2023-04-03T02:12:45;100801.09;;;2.93;86.61
70302;BME280;57706;56.326;43.882;2023-04-03T02:15:11;100806.19;;;2.95;86.72
70302;BME280;57706;56.326;43.882;2023-04-03T02:17:37;100804.53;;;2.94;86.33
70302;BME280;57706;56.326;43.882;2023-04-03T02:20:04;100800.38;;;2.91;86.60
70302;BME280;57706;56.326;43.882;2023-04-03T02:22:30;100796.84;;;2.92;86.56
70302;BME280;57706;56.326;43.882;2023-04-03T02:24:56;100794.06;;;2.95;86.60
70302;BME280;57706;56.326;43.882;2023-04-03T02:27:22;100802.03;;;2.92;86.62
70302;BME280;57706;56.326;43.882;2023-04-03T02:29:48;100810.66;;;2.93;86.70
70302;BME280;57706;56.326;43.882;2023-04-03T02:32:14;100800.16;;;2.94;86.72
70302;BME280;57706;56.326;43.882;2023-04-03T02:34:40;100803.59;;;2.95;86.91
70302;BME280;57706;56.326;43.882;2023-04-03T02:37:07;100803.50;;;2.96;86.91
70302;BME280;57706;56.326;43.882;2023-04-03T02:39:32;100799.75;;;3.00;86.77
70302;BME280;57706;56.326;43.882;2023-04-03T02:41:59;100801.41;;;3.01;86.88
70302;BME280;57706;56.326;43.882;2023-04-03T02:44:26;100796.84;;;3.05;86.64
70302;BME280;57706;56.326;43.882;2023-04-03T02:46:52;100798.72;;;3.03;86.49
70302;BME280;57706;56.326;43.882;2023-04-03T02:49:18;100792.69;;;3.02;86.35
70302;BME280;57706;56.326;43.882;2023-04-03T02:51:44;100794.25;;;3.05;86.24
70302;BME280;57706;56.326;43.882;2023-04-03T02:54:11;100799.97;;;3.10;86.38
70302;BME280;57706;56.326;43.882;2023-04-03T02:56:40;100800.06;;;3.09;85.96
70302;BME280;57706;56.326;43.882;2023-04-03T02:59:06;100803.59;;;3.08;85.81
70302;BME280;57706;56.326;43.882;2023-04-03T03:01:34;100803.06;;;3.02;85.43
70302;BME280;57706;56.326;43.882;2023-04-03T03:04:01;100809.44;;;2.98;85.28
70302;BME280;57706;56.326;43.882;2023-04-03T03:06:27;100807.22;;;2.92;85.54
70302;BME280;57706;56.326;43.882;2023-04-03T03:08:53;100812.25;;;2.95;85.63
70302;BME280;57706;56.326;43.882;2023-04-03T03:11:20;100809.50;;;2.84;84.94
70302;BME280;57706;56.326;43.882;2023-04-03T03:13:46;100812.16;;;2.69;85.11
70302;BME280;57706;56.326;43.882;2023-04-03T03:16:12;100811.59;;;2.79;85.39
70302;BME280;57706;56.326;43.882;2023-04-03T03:18:38;100814.69;;;2.84;85.14
70302;BME280;57706;56.326;43.882;2023-04-03T03:21:04;100809.31;;;2.87;84.55
70302;BME280;57706;56.326;43.882;2023-04-03T03:23:31;100809.09;;;2.90;84.29
70302;BME280;57706;56.326;43.882;2023-04-03T03:26:01;100820.94;;;2.94;83.98
70302;BME280;57706;56.326;43.882;2023-04-03T03:28:27;100813.91;;;2.96;83.71
70302;BME280;57706;56.326;43.882;2023-04-03T03:30:53;100816.19;;;3.01;83.49
70302;BME280;57706;56.326;43.882;2023-04-03T03:33:19;100817.13;;;3.13;83.36
70302;BME280;57706;56.326;43.882;2023-04-03T03:35:45;100812.44;;;3.18;82.59
70302;BME280;57706;56.326;43.882;2023-04-03T03:38:11;100812.44;;;3.18;82.43
70302;BME280;57706;56.326;43.882;2023-04-03T03:40:37;100820.75;;;3.23;82.38
70302;BME280;57706;56.326;43.882;2023-04-03T03:43:04;100816.50;;;3.35;82.24
70302;BME280;57706;56.326;43.882;2023-04-03T03:45:30;100810.75;;;3.43;81.98
70302;BME280;57706;56.326;43.882;2023-04-03T03:47:56;100816.41;;;3.37;81.12
70302;BME280;57706;56.326;43.882;2023-04-03T03:50:22;100816.41;;;3.50;81.04
70302;BME280;57706;56.326;43.882;2023-04-03T03:52:49;100811.38;;;3.47;80.51
70302;BME280;57706;56.326;43.882;2023-04-03T03:55:15;100811.81;;;3.53;80.65
70302;BME280;57706;56.326;43.882;2023-04-03T03:57:41;100813.78;;;3.63;80.50
70302;BME280;57706;56.326;43.882;2023-04-03T04:00:07;100819.75;;;3.76;80.41
70302;BME280;57706;56.326;43.882;2023-04-03T04:02:41;100819.00;;;3.87;79.99
70302;BME280;57706;56.326;43.882;2023-04-03T04:05:11;100815.00;;;4.07;79.67
70302;BME280;57706;56.326;43.882;2023-04-03T04:07:37;100812.00;;;4.25;78.99
70302;BME280;57706;56.326;43.882;2023-04-03T04:10:04;100814.13;;;4.20;78.37
70302;BME280;57706;56.326;43.882;2023-04-03T04:12:30;100808.47;;;4.26;78.58
70302;BME280;57706;56.326;43.882;2023-04-03T04:14:56;100809.47;;;4.36;78.32
70302;BME280;57706;56.326;43.882;2023-04-03T04:17:23;100806.91;;;4.48;78.09
70302;BME280;57706;56.326;43.882;2023-04-03T04:19:49;100812.91;;;4.61;77.57
70302;BME280;57706;56.326;43.882;2023-04-03T04:22:15;100801.78;;;4.71;77.00
70302;BME280;57706;56.326;43.882;2023-04-03T04:24:42;100805.88;;;4.86;76.84
70302;BME280;57706;56.326;43.882;2023-04-03T04:27:08;100806.13;;;4.94;76.52
70302;BME280;57706;56.326;43.882;2023-04-03T04:29:34;100801.81;;;4.93;76.58
70302;BME280;57706;56.326;43.882;2023-04-03T04:32:03;100807.88;;;5.05;76.06
70302;BME280;57706;56.326;43.882;2023-04-03T04:34:30;100804.22;;;5.08;75.96
70302;BME280;57706;56.326;43.882;2023-04-03T04:36:57;100804.03;;;5.22;75.74
70302;BME280;57706;56.326;43.882;2023-04-03T04:39:23;100801.66;;;5.31;74.90
70302;BME280;57706;56.326;43.882;2023-04-03T04:41:49;100802.34;;;5.21;75.01
70302;BME280;57706;56.326;43.882;2023-04-03T04:44:15;100803.41;;;5.30;75.12
70302;BME280;57706;56.326;43.882;2023-04-03T04:46:41;100802.25;;;5.46;74.53
70302;BME280;57706;56.326;43.882;2023-04-03T04:49:08;100798.06;;;5.66;74.26
70302;BME280;57706;56.326;43.882;2023-04-03T04:51:34;100801.63;;;5.88;73.50
70302;BME280;57706;56.326;43.882;2023-04-03T04:54:00;100797.81;;;6.03;73.25
70302;BME280;57706;56.326;43.882;2023-04-03T04:56:26;100801.72;;;6.09;72.73
70302;BME280;57706;56.326;43.882;2023-04-03T04:58:54;100799.91;;;6.10;72.66
70302;BME280;57706;56.326;43.882;2023-04-03T05:01:21;100810.56;;;6.29;72.68
70302;BME280;57706;56.326;43.882;2023-04-03T05:03:54;100811.19;;;6.43;71.95
70302;BME280;57706;56.326;43.882;2023-04-03T05:06:22;100809.06;;;6.48;71.23
70302;BME280;57706;56.326;43.882;2023-04-03T05:08:49;100806.91;;;6.53;71.40
70302;BME280;57706;56.326;43.882;2023-04-03T05:11:15;100801.72;;;6.84;71.40
70302;BME280;57706;56.326;43.882;2023-04-03T05:13:43;100809.56;;;7.27;70.44
70302;BME280;57706;56.326;43.882;2023-04-03T05:16:09;100812.97;;;7.58;68.55
70302;BME280;57706;56.326;43.882;2023-04-03T05:18:35;100811.41;;;7.87;68.18
70302;BME280;57706;56.326;43.882;2023-04-03T05:21:06;100811.75;;;8.23;65.72
70302;BME280;57706;56.326;43.882;2023-04-03T05:23:32;100806.38;;;8.74;64.06
70302;BME280;57706;56.326;43.882;2023-04-03T05:26:02;100814.22;;;8.74;63.34
70302;BME280;57706;56.326;43.882;2023-04-03T05:28:29;100810.00;;;8.63;63.81
70302;BME280;57706;56.326;43.882;2023-04-03T05:30:57;100812.84;;;8.21;64.81
70302;BME280;57706;56.326;43.882;2023-04-03T05:33:28;100813.38;;;8.24;65.68
70302;BME280;57706;56.326;43.882;2023-04-03T05:35:56;100809.81;;;8.25;65.06
70302;BME280;57706;56.326;43.882;2023-04-03T05:38:26;100817.53;;;8.37;65.79
70302;BME280;57706;56.326;43.882;2023-04-03T05:40:55;100807.63;;;8.70;65.20
70302;BME280;57706;56.326;43.882;2023-04-03T05:43:21;100811.97;;;8.99;63.85
70302;BME280;57706;56.326;43.882;2023-04-03T05:45:48;100811.66;;;9.22;62.48
70302;BME280;57706;56.326;43.882;2023-04-03T05:48:15;100799.72;;;9.38;63.40
70302;BME280;57706;56.326;43.882;2023-04-03T05:50:41;100800.59;;;9.28;62.72
70302;BME280;57706;56.326;43.882;2023-04-03T05:53:18;100813.50;;;9.40;63.26
70302;BME280;57706;56.326;43.882;2023-04-03T05:55:45;100814.09;;;9.71;62.69
70302;BME280;57706;56.326;43.882;2023-04-03T05:58:12;100815.16;;;9.97;61.67
70302;BME280;57706;56.326;43.882;2023-04-03T06:00:39;100811.97;;;10.21;61.61
70302;BME280;57706;56.326;43.882;2023-04-03T06:03:06;100816.03;;;10.52;61.03
70302;BME280;57706;56.326;43.882;2023-04-03T06:05:32;100811.28;;;10.73;59.37
70302;BME280;57706;56.326;43.882;2023-04-03T06:07:57;100813.66;;;11.11;58.94
70302;BME280;57706;56.326;43.882;2023-04-03T06:10:23;100804.56;;;11.32;57.06
70302;BME280;57706;56.326;43.882;2023-04-03T06:12:50;100801.84;;;11.50;57.70
70302;BME280;57706;56.326;43.882;2023-04-03T06:15:16;100807.69;;;11.70;56.63
70302;BME280;57706;56.326;43.882;2023-04-03T06:17:43;100805.94;;;11.96;56.60
70302;BME280;57706;56.326;43.882;2023-04-03T06:20:10;100799.03;;;11.95;55.51
70302;BME280;57706;56.326;43.882;2023-04-03T06:22:36;100803.72;;;12.34;55.28
70302;BME280;57706;56.326;43.882;2023-04-03T06:25:03;100806.34;;;12.68;52.49
70302;BME280;57706;56.326;43.882;2023-04-03T06:27:28;100808.66;;;12.71;51.12
70302;BME280;57706;56.326;43.882;2023-04-03T06:29:54;100804.03;;;13.54;51.47
70302;BME280;57706;56.326;43.882;2023-04-03T06:32:20;100802.91;;;14.03;49.20
70302;BME280;57706;56.326;43.882;2023-04-03T06:34:46;100799.16;;;14.44;49.09
70302;BME280;57706;56.326;43.882;2023-04-03T06:37:16;100797.19;;;15.00;46.31
70302;BME280;57706;56.326;43.882;2023-04-03T06:39:43;100805.84;;;15.39;46.53
70302;BME280;57706;56.326;43.882;2023-04-03T06:42:08;100806.38;;;15.86;43.59
70302;BME280;57706;56.326;43.882;2023-04-03T06:44:43;100797.69;;;16.58;44.31
70302;BME280;57706;56.326;43.882;2023-04-03T06:47:12;100809.66;;;16.75;43.49
70302;BME280;57706;56.326;43.882;2023-04-03T06:49:38;100796.84;;;17.08;43.04
70302;BME280;57706;56.326;43.882;2023-04-03T06:52:04;100790.63;;;18.92;39.20
70302;BME280;57706;56.326;43.882;2023-04-03T06:54:31;100795.97;;;23.17;33.31
70302;BME280;57706;56.326;43.882;2023-04-03T06:56:57;100794.38;;;26.21;25.86
70302;BME280;57706;56.326;43.882;2023-04-03T06:59:23;100786.34;;;27.48;23.69
70302;BME280;57706;56.326;43.882;2023-04-03T07:01:49;100788.97;;;29.84;22.65
70302;BME280;57706;56.326;43.882;2023-04-03T07:04:15;100781.06;;;31.92;20.76
70302;BME280;57706;56.326;43.882;2023-04-03T07:06:41;100774.28;;;32.08;19.92
70302;BME280;57706;56.326;43.882;2023-04-03T07:09:09;100773.38;;;33.71;18.27
70302;BME280;57706;56.326;43.882;2023-04-03T07:11:36;100768.59;;;34.40;17.05
70302;BME280;57706;56.326;43.882;2023-04-03T07:14:02;100764.13;;;36.50;15.45
70302;BME280;57706;56.326;43.882;2023-04-03T07:16:28;100761.84;;;37.25;14.49
70302;BME280;57706;56.326;43.882;2023-04-03T07:18:56;100754.97;;;36.98;13.84
70302;BME280;57706;56.326;43.882;2023-04-03T07:21:23;100762.56;;;36.92;14.57
70302;BME280;57706;56.326;43.882;2023-04-03T07:23:49;100760.72;;;35.23;14.60
70302;BME280;57706;56.326;43.882;2023-04-03T07:26:15;100752.63;;;35.88;15.04
70302;BME280;57706;56.326;43.882;2023-04-03T07:28:41;100756.06;;;35.14;15.84
70302;BME280;57706;56.326;43.882;2023-04-03T07:31:10;100752.97;;;32.72;17.47
70302;BME280;57706;56.326;43.882;2023-04-03T07:33:39;100749.28;;;31.01;18.40
70302;BME280;57706;56.326;43.882;2023-04-03T07:36:06;100752.22;;;31.63;18.93
70302;BME280;57706;56.326;43.882;2023-04-03T07:38:34;100750.09;;;33.05;17.39
70302;BME280;57706;56.326;43.882;2023-04-03T07:41:01;100749.97;;;35.00;15.16
70302;BME280;57706;56.326;43.882;2023-04-03T07:43:27;100748.81;;;35.72;15.38
70302;BME280;57706;56.326;43.882;2023-04-03T07:45:53;100750.94;;;36.95;13.74
70302;BME280;57706;56.326;43.882;2023-04-03T07:48:21;100752.72;;;38.26;13.46
70302;BME280;57706;56.326;43.882;2023-04-03T07:50:48;100752.41;;;39.50;11.72
70302;BME280;57706;56.326;43.882;2023-04-03T07:53:14;100754.78;;;37.24;12.78
70302;BME280;57706;56.326;43.882;2023-04-03T07:55:40;100750.41;;;39.35;12.02
70302;BME280;57706;56.326;43.882;2023-04-03T07:58:11;100747.97;;;39.62;11.90
70302;BME280;57706;56.326;43.882;2023-04-03T08:00:38;100749.88;;;39.01;11.86
70302;BME280;57706;56.326;43.882;2023-04-03T08:03:05;100741.78;;;39.97;11.18
70302;BME280;57706;56.326;43.882;2023-04-03T08:05:36;100745.75;;;38.53;12.04
70302;BME280;57706;56.326;43.882;2023-04-03T08:08:03;100737.19;;;39.24;12.09
70302;BME280;57706;56.326;43.882;2023-04-03T08:10:32;100746.03;;;38.64;12.22
70302;BME280;57706;56.326;43.882;2023-04-03T08:12:58;100736.00;;;38.31;12.50
70302;BME280;57706;56.326;43.882;2023-04-03T08:15:24;100734.03;;;39.87;11.95
70302;BME280;57706;56.326;43.882;2023-04-03T08:17:50;100740.22;;;39.35;11.18
70302;BME280;57706;56.326;43.882;2023-04-03T08:20:16;100727.41;;;39.88;11.71
70302;BME280;57706;56.326;43.882;2023-04-03T08:22:42;100736.38;;;39.24;12.02
70302;BME280;57706;56.326;43.882;2023-04-03T08:25:08;100741.63;;;39.01;12.04
70302;BME280;57706;56.326;43.882;2023-04-03T08:27:34;100734.59;;;38.75;12.38
70302;BME280;57706;56.326;43.882;2023-04-03T08:30:01;100730.53;;;38.19;12.02
70302;BME280;57706;56.326;43.882;2023-04-03T08:32:28;100741.91;;;38.71;11.40
70302;BME280;57706;56.326;43.882;2023-04-03T08:34:54;100732.94;;;38.99;11.76
70302;BME280;57706;56.326;43.882;2023-04-03T08:37:21;100728.38;;;38.90;11.12
70302;BME280;57706;56.326;43.882;2023-04-03T08:39:46;100727.22;;;39.48;11.30
70302;BME280;57706;56.326;43.882;2023-04-03T08:48:06;100730.63;;;39.90;10.96
70302;BME280;57706;56.326;43.882;2023-04-03T08:50:39;100730.06;;;38.04;11.51
70302;BME280;57706;56.326;43.882;2023-04-03T08:53:12;100728.81;;;37.43;12.16
70302;BME280;57706;56.326;43.882;2023-04-03T08:55:45;100724.53;;;36.48;12.61
70302;BME280;57706;56.326;43.882;2023-04-03T08:58:33;100729.00;;;36.22;12.79
70302;BME280;57706;56.326;43.882;2023-04-03T09:01:19;100729.06;;;35.48;13.50
70302;BME280;57706;56.326;43.882;2023-04-03T09:03:46;100724.69;;;35.56;13.70
70302;BME280;57706;56.326;43.882;2023-04-03T09:06:26;100725.94;;;34.44;13.85
70302;BME280;57706;56.326;43.882;2023-04-03T09:14:39;100720.09;;;33.87;14.35
70302;BME280;57706;56.326;43.882;2023-04-03T09:17:24;100719.84;;;34.47;14.12
70302;BME280;57706;56.326;43.882;2023-04-03T09:20:00;100734.91;;;33.72;13.85
70302;BME280;57706;56.326;43.882;2023-04-03T09:22:32;100724.25;;;34.75;13.64
70302;BME280;57706;56.326;43.882;2023-04-03T09:25:02;100721.84;;;34.91;13.32
70302;BME280;57706;56.326;43.882;2023-04-03T09:27:31;100722.13;;;34.04;14.26
70302;BME280;57706;56.326;43.882;2023-04-03T09:29:57;100730.16;;;34.59;14.20
70302;BME280;57706;56.326;43.882;2023-04-03T09:32:32;100733.09;;;35.16;13.58
70302;BME280;57706;56.326;43.882;2023-04-03T09:35:23;100731.66;;;36.01;12.77
70302;BME280;57706;56.326;43.882;2023-04-03T09:37:55;100727.88;;;34.03;13.61
70302;BME280;57706;56.326;43.882;2023-04-03T09:40:37;100739.47;;;32.94;14.62
70302;BME280;57706;56.326;43.882;2023-04-03T09:43:28;100726.94;;;34.66;13.45
70302;BME280;57706;56.326;43.882;2023-04-03T09:45:56;100723.66;;;34.28;13.83
70302;BME280;57706;56.326;43.882;2023-04-03T09:48:24;100719.84;;;34.47;13.44
70302;BME280;57706;56.326;43.882;2023-04-03T09:53:37;100731.44;;;32.61;14.65
70302;BME280;57706;56.326;43.882;2023-04-03T09:56:27;100729.88;;;30.70;15.78
70302;BME280;57706;56.326;43.882;2023-04-03T10:01:31;100725.84;;;31.11;15.97
70302;BME280;57706;56.326;43.882;2023-04-03T10:04:18;100725.50;;;32.59;14.93
70302;BME280;57706;56.326;43.882;2023-04-03T10:06:55;100724.50;;;31.08;15.85
70302;BME280;57706;56.326;43.882;2023-04-03T10:14:34;100726.53;;;31.55;15.67
70302;BME280;57706;56.326;43.882;2023-04-03T10:17:32;100716.16;;;33.25;14.56
70302;BME280;57706;56.326;43.882;2023-04-03T10:20:09;100711.44;;;32.94;14.32
70302;BME280;57706;56.326;43.882;2023-04-03T10:25:42;100714.84;;;30.04;16.72
70302;BME280;57706;56.326;43.882;2023-04-03T10:28:25;100709.16;;;28.36;18.39
70302;BME280;57706;56.326;43.882;2023-04-03T10:39:20;100719.41;;;25.75;20.64
70302;BME280;57706;56.326;43.882;2023-04-03T10:41:58;100713.31;;;25.52;20.98
70302;BME280;57706;56.326;43.882;2023-04-03T10:47:20;100711.16;;;25.54;21.15
70302;BME280;57706;56.326;43.882;2023-04-03T10:52:45;100711.81;;;25.39;21.64
70302;BME280;57706;56.326;43.882;2023-04-03T10:55:24;100704.75;;;25.60;21.35
70302;BME280;57706;56.326;43.882;2023-04-03T10:57:56;100702.38;;;26.02;20.93
70302;BME280;57706;56.326;43.882;2023-04-03T11:00:45;100701.59;;;27.13;19.64
70302;BME280;57706;56.326;43.882;2023-04-03T11:03:14;100710.03;;;28.81;18.59
70302;BME280;57706;56.326;43.882;2023-04-03T11:05:51;100710.50;;;30.08;17.51
70302;BME280;57706;56.326;43.882;2023-04-03T11:11:24;100707.13;;;31.28;16.24
70302;BME280;57706;56.326;43.882;2023-04-03T11:16:59;100696.19;;;32.14;15.68
70302;BME280;57706;56.326;43.882;2023-04-03T11:22:23;100689.47;;;30.49;16.58
70302;BME280;57706;56.326;43.882;2023-04-03T11:27:25;100694.28;;;30.52;16.98
70302;BME280;57706;56.326;43.882;2023-04-03T11:29:53;100690.28;;;30.93;15.99
70302;BME280;57706;56.326;43.882;2023-04-03T11:35:10;100684.13;;;30.63;16.54
70302;BME280;57706;56.326;43.882;2023-04-03T11:37:46;100689.63;;;28.49;18.14
70302;BME280;57706;56.326;43.882;2023-04-03T11:42:52;100686.50;;;27.90;18.96
70302;BME280;57706;56.326;43.882;2023-04-03T11:47:54;100668.69;;;27.21;19.67
70302;BME280;57706;56.326;43.882;2023-04-03T12:05:49;100663.81;;;27.03;20.26
70302;BME280;57706;56.326;43.882;2023-04-03T12:08:22;100651.16;;;27.92;19.22
70302;BME280;57706;56.326;43.882;2023-04-03T12:27:03;100636.69;;;26.56;19.87
70302;BME280;57706;56.326;43.882;2023-04-03T12:48:27;100636.81;;;23.86;22.65
70302;BME280;57706;56.326;43.882;2023-04-03T12:50:55;100640.50;;;22.47;24.43
70302;BME280;57706;56.326;43.882;2023-04-03T12:53:28;100637.19;;;21.92;25.25
70302;BME280;57706;56.326;43.882;2023-04-03T12:55:57;100640.78;;;22.21;25.46
70302;BME280;57706;56.326;43.882;2023-04-03T12:58:27;100643.16;;;22.47;25.39
70302;BME280;57706;56.326;43.882;2023-04-03T13:01:10;100645.75;;;22.41;25.47
70302;BME280;57706;56.326;43.882;2023-04-03T13:03:43;100644.38;;;22.03;26.04
70302;BME280;57706;56.326;43.882;2023-04-03T13:08:51;100646.19;;;21.55;25.88
70302;BME280;57706;56.326;43.882;2023-04-03T13:11:19;100645.56;;;21.53;26.10
70302;BME280;57706;56.326;43.882;2023-04-03T13:13:56;100650.72;;;21.66;26.16
70302;BME280;57706;56.326;43.882;2023-04-03T13:16:22;100652.50;;;22.32;25.27
70302;BME280;57706;56.326;43.882;2023-04-03T13:18:53;100641.66;;;22.63;24.61
70302;BME280;57706;56.326;43.882;2023-04-03T13:21:23;100645.78;;;24.09;22.82
70302;BME280;57706;56.326;43.882;2023-04-03T13:23:52;100636.81;;;25.15;21.22
70302;BME280;57706;56.326;43.882;2023-04-03T13:26:20;100640.41;;;25.53;20.70
70302;BME280;57706;56.326;43.882;2023-04-03T13:28:48;100643.25;;;25.14;21.53
70302;BME280;57706;56.326;43.882;2023-04-03T13:31:30;100643.59;;;24.73;21.60
70302;BME280;57706;56.326;43.882;2023-04-03T13:36:39;100642.69;;;23.03;23.64
70302;BME280;57706;56.326;43.882;2023-04-03T13:39:23;100645.84;;;22.59;25.09
70302;BME280;57706;56.326;43.882;2023-04-03T13:41:52;100642.41;;;21.98;25.49
70302;BME280;57706;56.326;43.882;2023-04-03T13:46:50;100649.91;;;20.74;27.03
70302;BME280;57706;56.326;43.882;2023-04-03T13:49:22;100649.78;;;20.31;27.60
70302;BME280;57706;56.326;43.882;2023-04-03T13:51:52;100646.94;;;20.82;27.01
70302;BME280;57706;56.326;43.882;2023-04-03T13:54:33;100643.75;;;20.73;27.37
70302;BME280;57706;56.326;43.882;2023-04-03T13:57:00;100650.06;;;20.23;28.24
70302;BME280;57706;56.326;43.882;2023-04-03T13:59:34;100644.28;;;19.75;28.22
70302;BME280;57706;56.326;43.882;2023-04-03T14:04:54;100641.66;;;18.52;30.23
70302;BME280;57706;56.326;43.882;2023-04-03T14:07:22;100645.59;;;18.02;31.11
70302;BME280;57706;56.326;43.882;2023-04-03T14:09:49;100647.84;;;17.71;31.70
70302;BME280;57706;56.326;43.882;2023-04-03T14:12:26;100649.59;;;17.17;32.93
70302;BME280;57706;56.326;43.882;2023-04-03T14:14:53;100654.66;;;16.63;33.50
70302;BME280;57706;56.326;43.882;2023-04-03T14:17:21;100662.00;;;16.26;34.24
70302;BME280;57706;56.326;43.882;2023-04-03T14:19:50;100668.03;;;16.13;34.33
70302;BME280;57706;56.326;43.882;2023-04-03T14:22:23;100666.97;;;16.07;34.47
70302;BME280;57706;56.326;43.882;2023-04-03T14:24:50;100666.28;;;15.98;35.04
70302;BME280;57706;56.326;43.882;2023-04-03T14:27:26;100668.66;;;15.93;35.18
70302;BME280;57706;56.326;43.882;2023-04-03T14:29:54;100666.22;;;15.91;35.10
70302;BME280;57706;56.326;43.882;2023-04-03T14:32:21;100668.75;;;15.85;35.59
70302;BME280;57706;56.326;43.882;2023-04-03T14:34:49;100661.50;;;15.72;35.54
70302;BME280;57706;56.326;43.882;2023-04-03T14:37:21;100670.81;;;15.61;35.85
70302;BME280;57706;56.326;43.882;2023-04-03T14:39:48;100666.25;;;15.54;36.04
70302;BME280;57706;56.326;43.882;2023-04-03T14:42:18;100676.16;;;15.46;36.11
70302;BME280;57706;56.326;43.882;2023-04-03T14:44:44;100673.50;;;15.46;36.11
70302;BME280;57706;56.326;43.882;2023-04-03T14:47:12;100675.91;;;15.40;36.37
70302;BME280;57706;56.326;43.882;2023-04-03T14:49:39;100674.63;;;15.36;36.51
70302;BME280;57706;56.326;43.882;2023-04-03T14:52:05;100681.44;;;15.24;36.47
70302;BME280;57706;56.326;43.882;2023-04-03T14:54:31;100677.22;;;15.14;36.70
70302;BME280;57706;56.326;43.882;2023-04-03T14:56:59;100671.25;;;14.91;37.78
70302;BME280;57706;56.326;43.882;2023-04-03T14:59:26;100658.94;;;14.83;37.51
70302;BME280;57706;56.326;43.882;2023-04-03T15:01:52;100665.03;;;14.53;38.81